sensor_id;sensor_type;location;lat;lon;timestamp;P1;durP1;ratioP1;P2;durP2;ratioP2
34405;SDS011;20658;45.630;8.886;2023-06-04T00:00:41;3.95;;;1.77;;
34405;SDS011;20658;45.630;8.886;2023-06-04T00:03:10;3.42;;;1.95;;
34405;SDS011;20658;45.630;8.886;2023-06-04T00:05:43;3.35;;;2.17;;
34405;SDS011;20658;45.630;8.886;2023-06-04T00:08:12;6.97;;;2.20;;
34405;SDS011;20658;45.630;8.886;2023-06-04T00:10:40;6.50;;;1.90;;
34405;SDS011;20658;45.630;8.886;2023-06-04T00:13:13;6.30;;;2.08;;
34405;SDS011;20658;45.630;8.886;2023-06-04T00:15:48;3.80;;;2.00;;
34405;SDS011;20658;45.630;8.886;2023-06-04T00:18:16;3.83;;;2.05;;
34405;SDS011;20658;45.630;8.886;2023-06-04T00:20:50;5.32;;;2.33;;
34405;SDS011;20658;45.630;8.886;2023-06-04T00:23:18;6.05;;;2.13;;
34405;SDS011;20658;45.630;8.886;2023-06-04T00:25:47;4.75;;;2.10;;
34405;SDS011;20658;45.630;8.886;2023-06-04T00:28:15;4.75;;;2.20;;
34405;SDS011;20658;45.630;8.886;2023-06-04T00:30:44;5.18;;;2.72;;
34405;SDS011;20658;45.630;8.886;2023-06-04T00:33:14;7.88;;;2.30;;
34405;SDS011;20658;45.630;8.886;2023-06-04T00:35:42;4.13;;;1.90;;
34405;SDS011;20658;45.630;8.886;2023-06-04T00:38:11;4.15;;;2.10;;
34405;SDS011;20658;45.630;8.886;2023-06-04T00:40:39;4.18;;;2.70;;
34405;SDS011;20658;45.630;8.886;2023-06-04T00:43:07;5.50;;;2.08;;
34405;SDS011;20658;45.630;8.886;2023-06-04T00:45:36;3.80;;;1.70;;
34405;SDS011;20658;45.630;8.886;2023-06-04T00:48:05;5.88;;;1.83;;
34405;SDS011;20658;45.630;8.886;2023-06-04T00:50:35;3.38;;;1.73;;
34405;SDS011;20658;45.630;8.886;2023-06-04T00:53:11;5.50;;;1.98;;
34405;SDS011;20658;45.630;8.886;2023-06-04T00:55:39;5.72;;;2.35;;
34405;SDS011;20658;45.630;8.886;2023-06-04T00:58:08;2.42;;;1.73;;
34405;SDS011;20658;45.630;8.886;2023-06-04T01:00:36;3.25;;;1.83;;
34405;SDS011;20658;45.630;8.886;2023-06-04T01:03:07;3.03;;;1.83;;
34405;SDS011;20658;45.630;8.886;2023-06-04T01:05:48;3.15;;;1.90;;
34405;SDS011;20658;45.630;8.886;2023-06-04T01:08:30;2.95;;;1.85;;
34405;SDS011;20658;45.630;8.886;2023-06-04T01:10:59;4.70;;;1.73;;
34405;SDS011;20658;45.630;8.886;2023-06-04T01:13:27;6.43;;;2.15;;
34405;SDS011;20658;45.630;8.886;2023-06-04T01:15:55;3.13;;;1.80;;
34405;SDS011;20658;45.630;8.886;2023-06-04T01:18:26;5.75;;;2.70;;
34405;SDS011;20658;45.630;8.886;2023-06-04T01:20:58;4.88;;;2.63;;
34405;SDS011;20658;45.630;8.886;2023-06-04T01:23:35;7.68;;;3.53;;
34405;SDS011;20658;45.630;8.886;2023-06-04T01:26:13;8.38;;;3.50;;
34405;SDS011;20658;45.630;8.886;2023-06-04T01:28:42;6.03;;;3.22;;
34405;SDS011;20658;45.630;8.886;2023-06-04T01:31:19;7.35;;;3.55;;
34405;SDS011;20658;45.630;8.886;2023-06-04T01:33:54;8.95;;;3.92;;
34405;SDS011;20658;45.630;8.886;2023-06-04T01:36:30;7.25;;;3.72;;
34405;SDS011;20658;45.630;8.886;2023-06-04T01:39:04;8.05;;;3.78;;
34405;SDS011;20658;45.630;8.886;2023-06-04T01:41:32;11.73;;;4.65;;
34405;SDS011;20658;45.630;8.886;2023-06-04T01:44:00;8.13;;;4.53;;
34405;SDS011;20658;45.630;8.886;2023-06-04T01:46:28;8.85;;;4.38;;
34405;SDS011;20658;45.630;8.886;2023-06-04T01:49:02;6.10;;;3.47;;
34405;SDS011;20658;45.630;8.886;2023-06-04T01:51:33;10.50;;;4.32;;
34405;SDS011;20658;45.630;8.886;2023-06-04T01:54:03;6.32;;;3.72;;
34405;SDS011;20658;45.630;8.886;2023-06-04T01:56:31;7.57;;;3.78;;
34405;SDS011;20658;45.630;8.886;2023-06-04T01:59:00;7.35;;;4.07;;
34405;SDS011;20658;45.630;8.886;2023-06-04T02:01:33;6.75;;;4.03;;
34405;SDS011;20658;45.630;8.886;2023-06-04T02:04:08;7.45;;;4.53;;
34405;SDS011;20658;45.630;8.886;2023-06-04T02:06:38;6.63;;;4.30;;
34405;SDS011;20658;45.630;8.886;2023-06-04T02:09:12;7.80;;;4.43;;
34405;SDS011;20658;45.630;8.886;2023-06-04T02:11:45;7.15;;;4.25;;
34405;SDS011;20658;45.630;8.886;2023-06-04T02:14:15;9.40;;;4.82;;
34405;SDS011;20658;45.630;8.886;2023-06-04T02:16:49;9.25;;;5.60;;
34405;SDS011;20658;45.630;8.886;2023-06-04T02:19:22;8.77;;;4.60;;
34405;SDS011;20658;45.630;8.886;2023-06-04T02:21:58;9.32;;;5.03;;
34405;SDS011;20658;45.630;8.886;2023-06-04T02:24:27;7.95;;;5.22;;
34405;SDS011;20658;45.630;8.886;2023-06-04T02:26:55;11.68;;;5.45;;
34405;SDS011;20658;45.630;8.886;2023-06-04T02:29:28;12.35;;;5.38;;
34405;SDS011;20658;45.630;8.886;2023-06-04T02:31:57;10.48;;;5.25;;
34405;SDS011;20658;45.630;8.886;2023-06-04T02:34:30;9.07;;;4.70;;
34405;SDS011;20658;45.630;8.886;2023-06-04T02:37:06;8.35;;;3.50;;
34405;SDS011;20658;45.630;8.886;2023-06-04T02:39:40;9.70;;;3.92;;
34405;SDS011;20658;45.630;8.886;2023-06-04T02:42:08;6.72;;;3.47;;
34405;SDS011;20658;45.630;8.886;2023-06-04T02:44:37;10.85;;;4.13;;
34405;SDS011;20658;45.630;8.886;2023-06-04T02:47:05;10.60;;;3.10;;
34405;SDS011;20658;45.630;8.886;2023-06-04T02:49:35;6.90;;;3.38;;
34405;SDS011;20658;45.630;8.886;2023-06-04T02:52:04;10.90;;;3.47;;
34405;SDS011;20658;45.630;8.886;2023-06-04T02:54:35;11.73;;;4.15;;
34405;SDS011;20658;45.630;8.886;2023-06-04T02:57:03;12.80;;;3.75;;
34405;SDS011;20658;45.630;8.886;2023-06-04T02:59:33;9.82;;;4.13;;
34405;SDS011;20658;45.630;8.886;2023-06-04T03:02:01;8.65;;;3.80;;
34405;SDS011;20658;45.630;8.886;2023-06-04T03:04:31;10.02;;;4.35;;
34405;SDS011;20658;45.630;8.886;2023-06-04T03:07:01;12.18;;;6.30;;
34405;SDS011;20658;45.630;8.886;2023-06-04T03:09:31;13.73;;;4.85;;
34405;SDS011;20658;45.630;8.886;2023-06-04T03:12:00;9.25;;;4.32;;
34405;SDS011;20658;45.630;8.886;2023-06-04T03:14:29;8.32;;;4.45;;
34405;SDS011;20658;45.630;8.886;2023-06-04T03:16:59;8.43;;;4.00;;
34405;SDS011;20658;45.630;8.886;2023-06-04T03:19:34;7.03;;;4.18;;
34405;SDS011;20658;45.630;8.886;2023-06-04T03:22:09;6.88;;;3.45;;
34405;SDS011;20658;45.630;8.886;2023-06-04T03:24:44;10.90;;;4.82;;
34405;SDS011;20658;45.630;8.886;2023-06-04T03:27:12;15.52;;;5.40;;
34405;SDS011;20658;45.630;8.886;2023-06-04T03:29:41;12.73;;;5.07;;
34405;SDS011;20658;45.630;8.886;2023-06-04T03:32:12;9.55;;;4.85;;
34405;SDS011;20658;45.630;8.886;2023-06-04T03:34:47;10.65;;;4.60;;
34405;SDS011;20658;45.630;8.886;2023-06-04T03:37:16;11.38;;;4.30;;
34405;SDS011;20658;45.630;8.886;2023-06-04T03:39:46;9.15;;;4.15;;
34405;SDS011;20658;45.630;8.886;2023-06-04T03:42:20;5.90;;;3.95;;
34405;SDS011;20658;45.630;8.886;2023-06-04T03:44:49;7.97;;;3.90;;
34405;SDS011;20658;45.630;8.886;2023-06-04T03:47:19;4.70;;;2.97;;
34405;SDS011;20658;45.630;8.886;2023-06-04T03:49:52;3.88;;;2.50;;
34405;SDS011;20658;45.630;8.886;2023-06-04T03:52:25;4.55;;;2.80;;
34405;SDS011;20658;45.630;8.886;2023-06-04T03:54:58;6.38;;;2.65;;
34405;SDS011;20658;45.630;8.886;2023-06-04T03:57:34;5.95;;;2.63;;
34405;SDS011;20658;45.630;8.886;2023-06-04T04:00:05;5.53;;;2.70;;
34405;SDS011;20658;45.630;8.886;2023-06-04T04:02:49;4.82;;;2.67;;
34405;SDS011;20658;45.630;8.886;2023-06-04T04:05:26;7.68;;;3.10;;
34405;SDS011;20658;45.630;8.886;2023-06-04T04:08:00;4.80;;;2.88;;
34405;SDS011;20658;45.630;8.886;2023-06-04T04:10:33;3.93;;;2.23;;
34405;SDS011;20658;45.630;8.886;2023-06-04T04:13:03;4.97;;;2.83;;
34405;SDS011;20658;45.630;8.886;2023-06-04T04:15:38;4.93;;;2.42;;
34405;SDS011;20658;45.630;8.886;2023-06-04T04:18:11;3.05;;;1.98;;
34405;SDS011;20658;45.630;8.886;2023-06-04T04:20:45;4.10;;;2.22;;
34405;SDS011;20658;45.630;8.886;2023-06-04T04:23:14;7.10;;;2.35;;
34405;SDS011;20658;45.630;8.886;2023-06-04T04:25:49;6.07;;;2.92;;
34405;SDS011;20658;45.630;8.886;2023-06-04T04:28:18;3.67;;;2.13;;
34405;SDS011;20658;45.630;8.886;2023-06-04T04:30:46;4.80;;;2.40;;
34405;SDS011;20658;45.630;8.886;2023-06-04T04:33:20;4.15;;;2.60;;
34405;SDS011;20658;45.630;8.886;2023-06-04T04:35:51;6.93;;;2.88;;
34405;SDS011;20658;45.630;8.886;2023-06-04T04:38:21;4.97;;;2.58;;
34405;SDS011;20658;45.630;8.886;2023-06-04T04:41:01;6.57;;;3.08;;
34405;SDS011;20658;45.630;8.886;2023-06-04T04:43:36;9.57;;;3.08;;
34405;SDS011;20658;45.630;8.886;2023-06-04T04:46:20;6.57;;;3.33;;
34405;SDS011;20658;45.630;8.886;2023-06-04T04:48:49;5.88;;;3.70;;
34405;SDS011;20658;45.630;8.886;2023-06-04T04:51:18;4.70;;;3.05;;
34405;SDS011;20658;45.630;8.886;2023-06-04T04:53:46;9.98;;;4.53;;
34405;SDS011;20658;45.630;8.886;2023-06-04T04:56:16;4.50;;;3.40;;
34405;SDS011;20658;45.630;8.886;2023-06-04T04:58:47;3.97;;;2.80;;
34405;SDS011;20658;45.630;8.886;2023-06-04T05:01:21;5.88;;;3.75;;
34405;SDS011;20658;45.630;8.886;2023-06-04T05:03:57;6.10;;;3.40;;
34405;SDS011;20658;45.630;8.886;2023-06-04T05:06:25;4.50;;;3.10;;
34405;SDS011;20658;45.630;8.886;2023-06-04T05:08:59;5.82;;;3.25;;
34405;SDS011;20658;45.630;8.886;2023-06-04T05:11:35;6.03;;;3.88;;
34405;SDS011;20658;45.630;8.886;2023-06-04T05:14:08;9.02;;;4.53;;
34405;SDS011;20658;45.630;8.886;2023-06-04T05:16:37;6.20;;;4.50;;
34405;SDS011;20658;45.630;8.886;2023-06-04T05:19:08;4.70;;;3.28;;
34405;SDS011;20658;45.630;8.886;2023-06-04T05:21:42;4.82;;;3.53;;
34405;SDS011;20658;45.630;8.886;2023-06-04T05:24:12;6.22;;;3.40;;
34405;SDS011;20658;45.630;8.886;2023-06-04T05:26:42;6.60;;;3.72;;
34405;SDS011;20658;45.630;8.886;2023-06-04T05:29:16;7.10;;;4.13;;
34405;SDS011;20658;45.630;8.886;2023-06-04T05:31:46;6.03;;;3.70;;
34405;SDS011;20658;45.630;8.886;2023-06-04T05:34:17;7.00;;;4.60;;
34405;SDS011;20658;45.630;8.886;2023-06-04T05:36:48;5.95;;;3.95;;
34405;SDS011;20658;45.630;8.886;2023-06-04T05:39:18;8.73;;;4.60;;
34405;SDS011;20658;45.630;8.886;2023-06-04T05:42:02;6.15;;;4.30;;
34405;SDS011;20658;45.630;8.886;2023-06-04T05:44:38;7.82;;;4.43;;
34405;SDS011;20658;45.630;8.886;2023-06-04T05:47:14;6.53;;;3.42;;
34405;SDS011;20658;45.630;8.886;2023-06-04T05:49:49;5.85;;;4.32;;
34405;SDS011;20658;45.630;8.886;2023-06-04T05:52:23;7.10;;;3.92;;
34405;SDS011;20658;45.630;8.886;2023-06-04T05:54:51;7.38;;;4.03;;
34405;SDS011;20658;45.630;8.886;2023-06-04T05:57:21;6.15;;;4.18;;
34405;SDS011;20658;45.630;8.886;2023-06-04T05:59:50;10.15;;;5.22;;
34405;SDS011;20658;45.630;8.886;2023-06-04T06:02:23;9.77;;;5.13;;
34405;SDS011;20658;45.630;8.886;2023-06-04T06:04:52;8.77;;;4.97;;
34405;SDS011;20658;45.630;8.886;2023-06-04T06:07:20;7.50;;;4.43;;
34405;SDS011;20658;45.630;8.886;2023-06-04T06:09:49;6.72;;;4.22;;
34405;SDS011;20658;45.630;8.886;2023-06-04T06:12:23;7.57;;;4.53;;
34405;SDS011;20658;45.630;8.886;2023-06-04T06:14:52;11.27;;;4.47;;
34405;SDS011;20658;45.630;8.886;2023-06-04T06:17:20;6.28;;;4.10;;
34405;SDS011;20658;45.630;8.886;2023-06-04T06:19:54;7.82;;;4.32;;
34405;SDS011;20658;45.630;8.886;2023-06-04T06:22:22;7.07;;;4.97;;
34405;SDS011;20658;45.630;8.886;2023-06-04T06:24:51;7.55;;;4.57;;
34405;SDS011;20658;45.630;8.886;2023-06-04T06:27:19;8.27;;;4.90;;
34405;SDS011;20658;45.630;8.886;2023-06-04T06:29:49;6.53;;;4.20;;
34405;SDS011;20658;45.630;8.886;2023-06-04T06:32:18;6.95;;;4.25;;
34405;SDS011;20658;45.630;8.886;2023-06-04T06:34:51;8.20;;;4.30;;
34405;SDS011;20658;45.630;8.886;2023-06-04T06:37:24;8.90;;;3.25;;
34405;SDS011;20658;45.630;8.886;2023-06-04T06:39:58;5.53;;;2.40;;
34405;SDS011;20658;45.630;8.886;2023-06-04T06:42:26;3.60;;;2.65;;
34405;SDS011;20658;45.630;8.886;2023-06-04T06:45:06;5.25;;;3.33;;
34405;SDS011;20658;45.630;8.886;2023-06-04T06:47:40;5.28;;;2.92;;
34405;SDS011;20658;45.630;8.886;2023-06-04T06:50:14;3.33;;;2.30;;
34405;SDS011;20658;45.630;8.886;2023-06-04T06:52:47;6.43;;;2.22;;
34405;SDS011;20658;45.630;8.886;2023-06-04T06:55:21;4.75;;;2.63;;
34405;SDS011;20658;45.630;8.886;2023-06-04T06:57:54;3.45;;;2.20;;
34405;SDS011;20658;45.630;8.886;2023-06-04T07:00:29;3.70;;;2.50;;
34405;SDS011;20658;45.630;8.886;2023-06-04T07:03:03;4.60;;;2.00;;
34405;SDS011;20658;45.630;8.886;2023-06-04T07:05:36;3.47;;;1.58;;
34405;SDS011;20658;45.630;8.886;2023-06-04T07:08:10;2.92;;;1.58;;
34405;SDS011;20658;45.630;8.886;2023-06-04T07:10:43;3.45;;;1.70;;
34405;SDS011;20658;45.630;8.886;2023-06-04T07:13:11;2.53;;;1.60;;
34405;SDS011;20658;45.630;8.886;2023-06-04T07:15:46;4.93;;;1.50;;
34405;SDS011;20658;45.630;8.886;2023-06-04T07:18:20;4.10;;;1.65;;
34405;SDS011;20658;45.630;8.886;2023-06-04T07:20:53;2.42;;;1.73;;
34405;SDS011;20658;45.630;8.886;2023-06-04T07:23:26;3.95;;;1.85;;
34405;SDS011;20658;45.630;8.886;2023-06-04T07:26:00;4.97;;;1.85;;
34405;SDS011;20658;45.630;8.886;2023-06-04T07:28:33;3.90;;;1.58;;
34405;SDS011;20658;45.630;8.886;2023-06-04T07:31:09;2.58;;;1.67;;
34405;SDS011;20658;45.630;8.886;2023-06-04T07:33:42;3.50;;;1.92;;
34405;SDS011;20658;45.630;8.886;2023-06-04T07:36:12;4.18;;;1.90;;
34405;SDS011;20658;45.630;8.886;2023-06-04T07:38:41;7.75;;;2.40;;
34405;SDS011;20658;45.630;8.886;2023-06-04T07:41:14;5.15;;;2.08;;
34405;SDS011;20658;45.630;8.886;2023-06-04T07:43:43;6.63;;;2.63;;
34405;SDS011;20658;45.630;8.886;2023-06-04T07:46:17;3.72;;;1.67;;
34405;SDS011;20658;45.630;8.886;2023-06-04T07:48:51;2.55;;;1.95;;
34405;SDS011;20658;45.630;8.886;2023-06-04T07:51:24;5.70;;;2.47;;
34405;SDS011;20658;45.630;8.886;2023-06-04T07:53:58;3.22;;;1.90;;
34405;SDS011;20658;45.630;8.886;2023-06-04T07:56:26;5.43;;;1.63;;
34405;SDS011;20658;45.630;8.886;2023-06-04T07:58:55;4.60;;;1.88;;
34405;SDS011;20658;45.630;8.886;2023-06-04T08:01:29;5.45;;;2.00;;
34405;SDS011;20658;45.630;8.886;2023-06-04T08:04:03;6.00;;;1.95;;
34405;SDS011;20658;45.630;8.886;2023-06-04T08:06:36;4.68;;;1.95;;
34405;SDS011;20658;45.630;8.886;2023-06-04T08:09:11;5.75;;;2.10;;
34405;SDS011;20658;45.630;8.886;2023-06-04T08:11:44;3.55;;;1.90;;
34405;SDS011;20658;45.630;8.886;2023-06-04T08:14:18;8.73;;;2.40;;
34405;SDS011;20658;45.630;8.886;2023-06-04T08:16:55;4.10;;;2.00;;
34405;SDS011;20658;45.630;8.886;2023-06-04T08:19:28;6.75;;;2.55;;
34405;SDS011;20658;45.630;8.886;2023-06-04T08:22:02;4.20;;;2.88;;
34405;SDS011;20658;45.630;8.886;2023-06-04T08:24:35;4.55;;;2.50;;
34405;SDS011;20658;45.630;8.886;2023-06-04T08:27:08;4.80;;;2.28;;
34405;SDS011;20658;45.630;8.886;2023-06-04T08:29:37;6.63;;;2.85;;
34405;SDS011;20658;45.630;8.886;2023-06-04T08:32:13;4.38;;;2.30;;
34405;SDS011;20658;45.630;8.886;2023-06-04T08:34:46;3.30;;;2.08;;
34405;SDS011;20658;45.630;8.886;2023-06-04T08:37:14;4.90;;;2.25;;
34405;SDS011;20658;45.630;8.886;2023-06-04T08:39:48;3.15;;;2.05;;
34405;SDS011;20658;45.630;8.886;2023-06-04T08:42:22;4.63;;;2.60;;
34405;SDS011;20658;45.630;8.886;2023-06-04T08:45:02;3.13;;;2.22;;
34405;SDS011;20658;45.630;8.886;2023-06-04T08:47:37;6.50;;;2.92;;
34405;SDS011;20658;45.630;8.886;2023-06-04T08:50:10;5.70;;;2.05;;
34405;SDS011;20658;45.630;8.886;2023-06-04T08:52:41;6.00;;;2.53;;
34405;SDS011;20658;45.630;8.886;2023-06-04T08:55:15;3.42;;;2.40;;
34405;SDS011;20658;45.630;8.886;2023-06-04T08:57:49;3.83;;;2.42;;
34405;SDS011;20658;45.630;8.886;2023-06-04T09:00:23;4.78;;;2.70;;
34405;SDS011;20658;45.630;8.886;2023-06-04T09:02:58;3.35;;;2.25;;
34405;SDS011;20658;45.630;8.886;2023-06-04T09:05:34;4.90;;;1.90;;
34405;SDS011;20658;45.630;8.886;2023-06-04T09:08:09;5.68;;;2.55;;
34405;SDS011;20658;45.630;8.886;2023-06-04T09:10:45;4.88;;;2.45;;
34405;SDS011;20658;45.630;8.886;2023-06-04T09:13:24;2.70;;;1.98;;
34405;SDS011;20658;45.630;8.886;2023-06-04T09:16:03;6.93;;;2.40;;
34405;SDS011;20658;45.630;8.886;2023-06-04T09:18:39;3.60;;;2.00;;
34405;SDS011;20658;45.630;8.886;2023-06-04T09:21:13;3.70;;;2.25;;
34405;SDS011;20658;45.630;8.886;2023-06-04T09:23:46;5.10;;;2.88;;
34405;SDS011;20658;45.630;8.886;2023-06-04T09:26:20;5.90;;;2.70;;
34405;SDS011;20658;45.630;8.886;2023-06-04T09:28:53;6.38;;;2.60;;
34405;SDS011;20658;45.630;8.886;2023-06-04T09:31:23;3.80;;;2.53;;
34405;SDS011;20658;45.630;8.886;2023-06-04T09:33:59;8.63;;;3.20;;
34405;SDS011;20658;45.630;8.886;2023-06-04T09:36:32;8.70;;;2.60;;
34405;SDS011;20658;45.630;8.886;2023-06-04T09:39:14;4.20;;;2.38;;
34405;SDS011;20658;45.630;8.886;2023-06-04T09:41:56;5.20;;;2.70;;
34405;SDS011;20658;45.630;8.886;2023-06-04T09:44:31;4.47;;;2.75;;
34405;SDS011;20658;45.630;8.886;2023-06-04T09:47:11;6.18;;;2.30;;
34405;SDS011;20658;45.630;8.886;2023-06-04T09:49:46;9.40;;;2.58;;
34405;SDS011;20658;45.630;8.886;2023-06-04T09:52:31;3.45;;;2.40;;
34405;SDS011;20658;45.630;8.886;2023-06-04T09:55:15;3.60;;;2.33;;
34405;SDS011;20658;45.630;8.886;2023-06-04T09:57:51;7.57;;;2.70;;
34405;SDS011;20658;45.630;8.886;2023-06-04T10:00:25;3.05;;;2.33;;
34405;SDS011;20658;45.630;8.886;2023-06-04T10:03:01;9.40;;;2.15;;
34405;SDS011;20658;45.630;8.886;2023-06-04T10:05:36;3.92;;;1.83;;
34405;SDS011;20658;45.630;8.886;2023-06-04T10:08:10;4.90;;;1.80;;
34405;SDS011;20658;45.630;8.886;2023-06-04T10:10:48;3.03;;;1.90;;
34405;SDS011;20658;45.630;8.886;2023-06-04T10:13:25;4.82;;;1.98;;
34405;SDS011;20658;45.630;8.886;2023-06-04T10:16:00;3.08;;;1.67;;
34405;SDS011;20658;45.630;8.886;2023-06-04T10:18:34;4.30;;;1.83;;
34405;SDS011;20658;45.630;8.886;2023-06-04T10:21:10;4.65;;;1.95;;
34405;SDS011;20658;45.630;8.886;2023-06-04T10:23:45;3.47;;;1.60;;
34405;SDS011;20658;45.630;8.886;2023-06-04T10:26:20;4.75;;;2.35;;
34405;SDS011;20658;45.630;8.886;2023-06-04T10:28:54;5.20;;;2.20;;
34405;SDS011;20658;45.630;8.886;2023-06-04T10:31:30;4.18;;;1.70;;
34405;SDS011;20658;45.630;8.886;2023-06-04T10:34:04;2.35;;;1.50;;
34405;SDS011;20658;45.630;8.886;2023-06-04T10:36:43;2.60;;;1.60;;
34405;SDS011;20658;45.630;8.886;2023-06-04T10:39:24;3.53;;;1.42;;
34405;SDS011;20658;45.630;8.886;2023-06-04T10:44:43;3.63;;;1.73;;
34405;SDS011;20658;45.630;8.886;2023-06-04T10:47:19;3.97;;;1.23;;
34405;SDS011;20658;45.630;8.886;2023-06-04T10:49:54;2.75;;;1.63;;
34405;SDS011;20658;45.630;8.886;2023-06-04T10:52:51;1.98;;;1.65;;
34405;SDS011;20658;45.630;8.886;2023-06-04T10:55:26;3.08;;;1.55;;
34405;SDS011;20658;45.630;8.886;2023-06-04T10:57:55;2.00;;;1.20;;
34405;SDS011;20658;45.630;8.886;2023-06-04T11:00:36;3.75;;;1.45;;
34405;SDS011;20658;45.630;8.886;2023-06-04T11:03:10;2.53;;;1.33;;
34405;SDS011;20658;45.630;8.886;2023-06-04T11:05:44;0.95;;;0.85;;
34405;SDS011;20658;45.630;8.886;2023-06-04T11:08:27;2.40;;;1.25;;
34405;SDS011;20658;45.630;8.886;2023-06-04T11:11:09;5.30;;;1.10;;
34405;SDS011;20658;45.630;8.886;2023-06-04T11:13:44;2.83;;;1.25;;
34405;SDS011;20658;45.630;8.886;2023-06-04T11:16:16;1.95;;;1.30;;
34405;SDS011;20658;45.630;8.886;2023-06-04T11:18:54;2.33;;;1.45;;
34405;SDS011;20658;45.630;8.886;2023-06-04T11:21:28;3.83;;;0.90;;
34405;SDS011;20658;45.630;8.886;2023-06-04T11:23:58;2.10;;;1.20;;
34405;SDS011;20658;45.630;8.886;2023-06-04T11:26:33;1.85;;;1.17;;
34405;SDS011;20658;45.630;8.886;2023-06-04T11:29:08;1.27;;;0.75;;
34405;SDS011;20658;45.630;8.886;2023-06-04T11:31:46;2.53;;;1.33;;
34405;SDS011;20658;45.630;8.886;2023-06-04T11:34:23;2.95;;;1.60;;
34405;SDS011;20658;45.630;8.886;2023-06-04T11:37:06;1.40;;;1.00;;
34405;SDS011;20658;45.630;8.886;2023-06-04T11:39:42;4.20;;;1.30;;
34405;SDS011;20658;45.630;8.886;2023-06-04T11:42:15;3.17;;;1.10;;
34405;SDS011;20658;45.630;8.886;2023-06-04T11:44:54;1.73;;;1.00;;
34405;SDS011;20658;45.630;8.886;2023-06-04T11:47:28;1.55;;;1.10;;
34405;SDS011;20658;45.630;8.886;2023-06-04T11:50:02;1.80;;;1.00;;
34405;SDS011;20658;45.630;8.886;2023-06-04T11:52:37;1.45;;;0.93;;
34405;SDS011;20658;45.630;8.886;2023-06-04T11:55:12;1.02;;;0.73;;
34405;SDS011;20658;45.630;8.886;2023-06-04T11:57:48;1.27;;;0.73;;
34405;SDS011;20658;45.630;8.886;2023-06-04T12:00:22;3.75;;;0.98;;
34405;SDS011;20658;45.630;8.886;2023-06-04T12:02:56;1.35;;;0.98;;
34405;SDS011;20658;45.630;8.886;2023-06-04T12:05:28;1.60;;;1.20;;
34405;SDS011;20658;45.630;8.886;2023-06-04T12:08:04;3.08;;;1.17;;
34405;SDS011;20658;45.630;8.886;2023-06-04T12:10:42;4.50;;;3.03;;
34405;SDS011;20658;45.630;8.886;2023-06-04T12:13:16;5.38;;;2.60;;
34405;SDS011;20658;45.630;8.886;2023-06-04T12:15:50;3.75;;;2.65;;
34405;SDS011;20658;45.630;8.886;2023-06-04T12:18:24;5.38;;;3.40;;
34405;SDS011;20658;45.630;8.886;2023-06-04T12:20:58;3.22;;;2.75;;
34405;SDS011;20658;45.630;8.886;2023-06-04T12:23:31;5.82;;;2.38;;
34405;SDS011;20658;45.630;8.886;2023-06-04T12:26:06;6.28;;;2.92;;
34405;SDS011;20658;45.630;8.886;2023-06-04T12:28:39;3.90;;;2.25;;
34405;SDS011;20658;45.630;8.886;2023-06-04T12:31:15;3.88;;;1.90;;
34405;SDS011;20658;45.630;8.886;2023-06-04T12:33:50;5.72;;;2.03;;
34405;SDS011;20658;45.630;8.886;2023-06-04T12:36:23;4.50;;;2.33;;
34405;SDS011;20658;45.630;8.886;2023-06-04T12:38:58;5.05;;;2.30;;
34405;SDS011;20658;45.630;8.886;2023-06-04T12:41:34;4.50;;;2.60;;
34405;SDS011;20658;45.630;8.886;2023-06-04T12:44:02;3.30;;;2.22;;
34405;SDS011;20658;45.630;8.886;2023-06-04T12:46:36;3.58;;;1.70;;
34405;SDS011;20658;45.630;8.886;2023-06-04T12:49:09;3.97;;;2.13;;
34405;SDS011;20658;45.630;8.886;2023-06-04T12:51:43;4.32;;;2.35;;
34405;SDS011;20658;45.630;8.886;2023-06-04T12:54:17;4.10;;;2.28;;
34405;SDS011;20658;45.630;8.886;2023-06-04T12:56:52;4.53;;;2.17;;
34405;SDS011;20658;45.630;8.886;2023-06-04T12:59:27;3.72;;;1.60;;
34405;SDS011;20658;45.630;8.886;2023-06-04T13:02:01;2.13;;;1.80;;
34405;SDS011;20658;45.630;8.886;2023-06-04T13:04:34;4.85;;;2.08;;
34405;SDS011;20658;45.630;8.886;2023-06-04T13:07:02;3.03;;;1.67;;
34405;SDS011;20658;45.630;8.886;2023-06-04T13:09:36;2.00;;;1.30;;
34405;SDS011;20658;45.630;8.886;2023-06-04T13:12:11;3.08;;;1.73;;
34405;SDS011;20658;45.630;8.886;2023-06-04T13:14:45;2.95;;;1.40;;
34405;SDS011;20658;45.630;8.886;2023-06-04T13:17:18;2.97;;;1.77;;
34405;SDS011;20658;45.630;8.886;2023-06-04T13:19:51;3.45;;;1.60;;
34405;SDS011;20658;45.630;8.886;2023-06-04T13:22:24;4.63;;;1.80;;
34405;SDS011;20658;45.630;8.886;2023-06-04T13:24:58;2.65;;;1.80;;
34405;SDS011;20658;45.630;8.886;2023-06-04T13:27:33;2.53;;;1.63;;
34405;SDS011;20658;45.630;8.886;2023-06-04T13:30:06;4.20;;;2.08;;
34405;SDS011;20658;45.630;8.886;2023-06-04T13:32:41;3.30;;;1.83;;
34405;SDS011;20658;45.630;8.886;2023-06-04T13:35:15;6.05;;;2.10;;
34405;SDS011;20658;45.630;8.886;2023-06-04T13:37:48;1.75;;;1.30;;
34405;SDS011;20658;45.630;8.886;2023-06-04T13:40:16;2.47;;;1.75;;
34405;SDS011;20658;45.630;8.886;2023-06-04T13:42:51;5.47;;;1.80;;
34405;SDS011;20658;45.630;8.886;2023-06-04T13:45:24;2.67;;;1.95;;
34405;SDS011;20658;45.630;8.886;2023-06-04T13:47:58;3.92;;;2.05;;
34405;SDS011;20658;45.630;8.886;2023-06-04T13:50:36;2.67;;;1.55;;
34405;SDS011;20658;45.630;8.886;2023-06-04T13:53:04;2.85;;;1.80;;
34405;SDS011;20658;45.630;8.886;2023-06-04T13:55:38;3.53;;;2.13;;
34405;SDS011;20658;45.630;8.886;2023-06-04T13:58:13;2.45;;;1.80;;
34405;SDS011;20658;45.630;8.886;2023-06-04T14:00:47;5.40;;;2.10;;
34405;SDS011;20658;45.630;8.886;2023-06-04T14:03:21;3.90;;;2.17;;
34405;SDS011;20658;45.630;8.886;2023-06-04T14:05:54;4.65;;;2.28;;
34405;SDS011;20658;45.630;8.886;2023-06-04T14:08:27;3.63;;;1.80;;
34405;SDS011;20658;45.630;8.886;2023-06-04T14:11:01;3.42;;;1.85;;
34405;SDS011;20658;45.630;8.886;2023-06-04T14:13:35;3.03;;;2.03;;
34405;SDS011;20658;45.630;8.886;2023-06-04T14:16:09;4.40;;;1.83;;
34405;SDS011;20658;45.630;8.886;2023-06-04T14:18:43;4.50;;;2.13;;
34405;SDS011;20658;45.630;8.886;2023-06-04T14:21:16;3.60;;;2.13;;
34405;SDS011;20658;45.630;8.886;2023-06-04T14:23:49;3.17;;;1.88;;
34405;SDS011;20658;45.630;8.886;2023-06-04T14:26:23;4.05;;;2.10;;
34405;SDS011;20658;45.630;8.886;2023-06-04T14:28:57;2.90;;;1.65;;
34405;SDS011;20658;45.630;8.886;2023-06-04T14:31:31;2.70;;;2.00;;
34405;SDS011;20658;45.630;8.886;2023-06-04T14:34:04;3.67;;;2.28;;
34405;SDS011;20658;45.630;8.886;2023-06-04T14:36:38;5.15;;;2.38;;
34405;SDS011;20658;45.630;8.886;2023-06-04T14:39:11;2.13;;;1.77;;
34405;SDS011;20658;45.630;8.886;2023-06-04T14:41:44;3.33;;;1.98;;
34405;SDS011;20658;45.630;8.886;2023-06-04T14:44:19;3.42;;;2.10;;
34405;SDS011;20658;45.630;8.886;2023-06-04T14:46:52;2.55;;;1.85;;
34405;SDS011;20658;45.630;8.886;2023-06-04T14:49:26;3.58;;;1.80;;
34405;SDS011;20658;45.630;8.886;2023-06-04T14:51:59;5.60;;;2.05;;
34405;SDS011;20658;45.630;8.886;2023-06-04T14:57:24;2.65;;;2.00;;
34405;SDS011;20658;45.630;8.886;2023-06-04T14:59:59;3.55;;;2.00;;
34405;SDS011;20658;45.630;8.886;2023-06-04T15:02:33;3.35;;;2.05;;
34405;SDS011;20658;45.630;8.886;2023-06-04T15:05:07;2.97;;;1.90;;
34405;SDS011;20658;45.630;8.886;2023-06-04T15:07:40;2.72;;;2.00;;
34405;SDS011;20658;45.630;8.886;2023-06-04T15:10:13;4.63;;;2.30;;
34405;SDS011;20658;45.630;8.886;2023-06-04T15:12:47;4.00;;;1.88;;
34405;SDS011;20658;45.630;8.886;2023-06-04T15:15:22;2.05;;;1.83;;
34405;SDS011;20658;45.630;8.886;2023-06-04T15:17:55;3.63;;;1.63;;
34405;SDS011;20658;45.630;8.886;2023-06-04T15:20:29;2.85;;;2.00;;
34405;SDS011;20658;45.630;8.886;2023-06-04T15:23:02;3.75;;;2.38;;
34405;SDS011;20658;45.630;8.886;2023-06-04T15:25:36;2.88;;;2.28;;
34405;SDS011;20658;45.630;8.886;2023-06-04T15:28:10;3.35;;;1.83;;